Time;durP1;ratioP1;P1;durP2;ratioP2;P2;SDS_P1;SDS_P2;PMS_P1;PMS_P2;Temp;Humidity;BMP_temperature;BMP_pressure;BME280_temperature;BME280_humidity;BME280_pressure;Samples;Min_cycle;Max_cycle;Signal;HPM_P1;HPM_P2
2022/01/01 00:01:22;;;;;;;72.10;37.85;;;;;;;12.21;100.00;102245.59;4944340;28;20023;-69
2022/01/01 00:03:47;;;;;;;74.43;32.65;;;;;;;12.04;100.00;102249.31;4923698;29;20034;-71
2022/01/01 00:06:13;;;;;;;71.10;35.42;;;;;;;12.00;100.00;102245.09;4937434;28;20064;-71
2022/01/01 00:08:38;;;;;;;71.13;33.10;;;;;;;11.92;100.00;102242.84;4937494;28;20031;-70
2022/01/01 00:11:03;;;;;;;71.85;34.28;;;;;;;12.01;100.00;102244.13;4946066;28;20915;-71
2022/01/01 00:13:29;;;;;;;69.25;34.42;;;;;;;12.15;100.00;102249.53;4937852;28;20351;-70
2022/01/01 00:15:54;;;;;;;71.80;34.45;;;;;;;12.12;100.00;102260.50;4942751;28;20074;-70
2022/01/01 00:18:19;;;;;;;70.03;31.88;;;;;;;12.05;100.00;102264.53;4935771;28;20045;-70
2022/01/01 00:20:45;;;;;;;62.85;29.20;;;;;;;12.06;100.00;102263.56;4924917;28;20051;-70
2022/01/01 00:23:10;;;;;;;59.67;30.95;;;;;;;12.08;100.00;102255.38;4940348;28;20138;-70
2022/01/01 00:25:35;;;;;;;60.80;29.55;;;;;;;12.26;100.00;102254.25;4937639;28;20450;-69
2022/01/01 00:28:00;;;;;;;59.95;30.33;;;;;;;12.21;100.00;102260.88;4935928;28;20031;-70
2022/01/01 00:30:26;;;;;;;61.90;29.00;;;;;;;11.97;100.00;102247.94;4939354;28;20377;-71
2022/01/01 00:32:51;;;;;;;68.40;30.27;;;;;;;12.13;100.00;102250.56;4924097;28;20078;-70
2022/01/01 00:35:16;;;;;;;72.15;31.17;;;;;;;12.06;100.00;102258.19;4938526;28;20027;-71
2022/01/01 00:37:42;;;;;;;62.75;29.98;;;;;;;12.14;100.00;102265.78;4939947;28;20032;-70
2022/01/01 00:40:07;;;;;;;60.85;28.38;;;;;;;12.11;100.00;102260.56;4940135;28;20056;-70
2022/01/01 00:42:33;;;;;;;63.30;28.08;;;;;;;12.03;100.00;102262.91;4940126;28;20035;-71
2022/01/01 00:44:58;;;;;;;71.78;32.72;;;;;;;12.05;100.00;102258.28;4939619;28;20395;-70
2022/01/01 00:47:23;;;;;;;58.17;29.08;;;;;;;12.14;100.00;102255.88;4939304;28;20114;-69
2022/01/01 00:49:49;;;;;;;66.13;29.17;;;;;;;12.07;100.00;102262.59;4934408;28;20078;-70
2022/01/01 00:52:14;;;;;;;57.80;27.15;;;;;;;11.96;100.00;102251.59;4938856;28;20444;-70
2022/01/01 00:54:41;;;;;;;59.58;26.92;;;;;;;11.95;100.00;102237.28;4936406;28;20031;-70
2022/01/01 00:57:06;;;;;;;54.15;23.52;;;;;;;12.10;100.00;102246.25;4937183;28;20110;-72
2022/01/01 00:59:31;;;;;;;64.28;25.83;;;;;;;11.99;100.00;102248.75;4914761;29;20128;-71
2022/01/01 01:01:58;;;;;;;55.60;22.95;;;;;;;12.08;100.00;102250.88;4933682;28;20023;-70
2022/01/01 01:04:23;;;;;;;55.88;23.77;;;;;;;12.04;100.00;102254.72;4937664;28;20444;-70
2022/01/01 01:06:48;;;;;;;64.38;25.48;;;;;;;12.11;100.00;102252.50;4940250;28;20049;-69
2022/01/01 01:09:14;;;;;;;57.60;24.73;;;;;;;12.06;100.00;102250.09;4938411;28;20077;-70
2022/01/01 01:11:45;;;;;;;57.35;25.02;;;;;;;12.10;100.00;102253.47;4936710;28;20387;-70
2022/01/01 01:14:19;;;;;;;47.22;23.40;;;;;;;12.01;100.00;102260.28;4920725;29;20058;-70
2022/01/01 01:16:44;;;;;;;55.38;23.58;;;;;;;12.09;100.00;102262.50;4921167;28;20031;-69
2022/01/01 01:19:10;;;;;;;58.20;26.63;;;;;;;12.17;100.00;102267.44;4921250;29;20042;-69
2022/01/01 01:21:35;;;;;;;47.83;21.73;;;;;;;12.12;100.00;102282.03;4921219;28;20035;-71
2022/01/01 01:24:01;;;;;;;48.60;21.70;;;;;;;12.17;100.00;102279.03;4938350;28;20451;-70
2022/01/01 01:26:28;;;;;;;60.58;25.67;;;;;;;12.12;100.00;102265.88;4938974;28;20049;-71
2022/01/01 01:28:54;;;;;;;49.60;22.55;;;;;;;12.08;100.00;102269.72;4936402;28;20035;-71
2022/01/01 01:31:20;;;;;;;45.80;20.40;;;;;;;12.08;100.00;102275.09;4937988;28;20089;-71
2022/01/01 01:33:45;;;;;;;60.78;20.40;;;;;;;12.11;100.00;102276.72;4935931;28;20035;-71
2022/01/01 01:36:11;;;;;;;51.70;20.30;;;;;;;11.87;100.00;102266.47;4917577;28;20075;-71
2022/01/01 01:38:37;;;;;;;51.92;22.13;;;;;;;11.98;100.00;102282.84;4916820;29;20439;-71
2022/01/01 01:41:08;;;;;;;46.40;21.30;;;;;;;12.03;100.00;102271.81;4920880;28;20467;-70
2022/01/01 01:43:33;;;;;;;51.45;20.38;;;;;;;12.10;100.00;102275.88;4931672;28;20030;-70
2022/01/01 01:46:04;;;;;;;53.00;22.30;;;;;;;12.16;100.00;102280.00;4909092;28;20684;-70
2022/01/01 01:48:30;;;;;;;39.65;15.73;;;;;;;12.04;100.00;102286.16;4938372;28;20035;-71
2022/01/01 01:50:56;;;;;;;46.03;17.67;;;;;;;12.06;100.00;102279.72;4943274;28;20039;-70
2022/01/01 01:53:22;;;;;;;46.42;17.63;;;;;;;12.18;100.00;102279.94;4936819;28;20630;-72
2022/01/01 01:55:47;;;;;;;52.13;20.23;;;;;;;12.14;100.00;102290.00;4908627;28;20043;-71
2022/01/01 01:58:12;;;;;;;41.17;18.08;;;;;;;12.29;100.00;102307.03;4938184;28;20545;-70
2022/01/01 02:01:08;;;;;;;50.70;18.45;;;;;;;12.22;100.00;102303.00;4924869;29;20042;-71
2022/01/01 02:03:32;;;;;;;47.75;17.23;;;;;;;12.06;100.00;102293.16;4936049;28;20119;-71
2022/01/01 02:05:58;;;;;;;38.08;16.35;;;;;;;12.18;100.00;102304.16;4919437;29;20031;-71
2022/01/01 02:08:24;;;;;;;41.08;17.88;;;;;;;12.10;100.00;102310.88;4933999;28;20315;-71
2022/01/01 02:10:52;;;;;;;45.47;17.75;;;;;;;12.17;100.00;102289.81;4920867;28;20568;-71
2022/01/01 02:13:27;;;;;;;40.50;17.73;;;;;;;12.29;100.00;102298.97;4911065;29;20035;-71
2022/01/01 02:18:19;;;;;;;44.58;17.08;;;;;;;12.18;100.00;102298.78;4919944;28;20039;-70
2022/01/01 02:20:50;;;;;;;39.47;15.27;;;;;;;12.11;100.00;102309.03;4920830;29;20027;-71
2022/01/01 02:23:22;;;;;;;37.58;15.52;;;;;;;12.03;100.00;102306.81;4940328;28;20062;-71
2022/01/01 02:25:52;;;;;;;37.80;15.48;;;;;;;12.07;100.00;102285.94;4921729;28;20507;-72
2022/01/01 02:28:17;;;;;;;44.13;15.02;;;;;;;12.06;100.00;102301.25;4918881;28;20636;-72
2022/01/01 02:30:42;;;;;;;43.45;15.80;;;;;;;11.92;100.00;102282.38;4921925;28;20032;-71
2022/01/01 02:33:08;;;;;;;40.88;14.68;;;;;;;11.93;100.00;102284.94;4935845;28;20606;-72
2022/01/01 02:35:33;;;;;;;41.33;14.90;;;;;;;11.88;100.00;102295.13;4938264;28;20035;-73
2022/01/01 02:37:59;;;;;;;46.05;15.75;;;;;;;11.85;100.00;102287.22;4922980;29;20031;-71
2022/01/01 02:40:24;;;;;;;50.45;16.23;;;;;;;11.89;100.00;102285.22;4906652;28;20368;-71
2022/01/01 02:42:51;;;;;;;35.75;14.13;;;;;;;11.91;100.00;102292.25;4936745;28;20085;-72
2022/01/01 02:45:16;;;;;;;30.90;12.75;;;;;;;11.81;100.00;102280.28;4922713;29;21633;-72
2022/01/01 02:47:42;;;;;;;41.20;14.15;;;;;;;11.83;100.00;102286.44;4939527;28;20023;-72
2022/01/01 02:50:08;;;;;;;39.35;12.65;;;;;;;11.84;100.00;102283.69;4919607;28;20075;-73
2022/01/01 02:52:34;;;;;;;37.28;13.98;;;;;;;11.95;100.00;102290.22;4940358;28;20027;-72
2022/01/01 02:54:59;;;;;;;31.10;12.40;;;;;;;11.76;100.00;102277.03;4936570;28;20027;-73
2022/01/01 02:57:25;;;;;;;38.28;13.07;;;;;;;11.79;100.00;102284.91;4939123;28;20035;-73
2022/01/01 02:59:50;;;;;;;29.75;12.40;;;;;;;11.77;100.00;102279.63;4937382;28;20126;-73
2022/01/01 03:02:16;;;;;;;36.67;14.35;;;;;;;11.88;100.00;102284.34;4924056;29;20035;-71
2022/01/01 03:04:41;;;;;;;35.78;12.55;;;;;;;11.82;100.00;102277.53;4915936;29;20028;-73
2022/01/01 03:07:07;;;;;;;32.67;11.52;;;;;;;11.82;100.00;102261.38;4918953;29;20031;-72
2022/01/01 03:09:35;;;;;;;37.22;13.80;;;;;;;11.97;100.00;102259.59;4938444;28;20038;-72
2022/01/01 03:12:06;;;;;;;35.33;12.32;;;;;;;12.04;100.00;102256.56;4937226;28;20035;-73
2022/01/01 03:14:31;;;;;;;27.42;11.75;;;;;;;11.98;100.00;102263.13;4921451;29;20039;-73
2022/01/01 03:16:57;;;;;;;28.70;10.93;;;;;;;11.85;100.00;102261.19;4920441;29;20032;-73
2022/01/01 03:19:22;;;;;;;43.33;15.32;;;;;;;12.06;100.00;102257.28;4940724;28;20458;-71
2022/01/01 03:21:48;;;;;;;33.83;9.77;;;;;;;11.98;100.00;102269.38;4941033;28;20041;-73
2022/01/01 03:24:13;;;;;;;27.90;10.30;;;;;;;11.90;100.00;102268.13;4922984;29;20383;-72
2022/01/01 03:26:38;;;;;;;31.45;10.90;;;;;;;11.96;100.00;102265.03;4937414;28;20119;-73
2022/01/01 03:29:04;;;;;;;32.92;11.85;;;;;;;12.08;100.00;102269.72;4945964;28;20396;-73
2022/01/01 03:31:29;;;;;;;30.27;11.50;;;;;;;11.88;100.00;102268.19;4940744;28;20031;-72
2022/01/01 03:33:57;;;;;;;31.55;10.27;;;;;;;11.90;100.00;102271.66;4936770;28;20035;-73
2022/01/01 03:36:23;;;;;;;32.50;11.40;;;;;;;11.81;100.00;102275.78;4938347;28;20046;-73
2022/01/01 03:38:48;;;;;;;26.50;10.32;;;;;;;11.76;100.00;102261.75;4943734;28;20027;-72
2022/01/01 03:41:14;;;;;;;32.35;12.43;;;;;;;12.22;100.00;102267.97;4940457;28;20027;-71
2022/01/01 03:43:39;;;;;;;33.72;12.88;;;;;;;11.98;100.00;102271.19;4935938;28;20027;-72
2022/01/01 03:46:04;;;;;;;28.02;10.55;;;;;;;11.88;100.00;102257.44;4921138;28;20439;-72
2022/01/01 03:48:30;;;;;;;28.02;10.57;;;;;;;11.77;100.00;102249.16;4941989;28;20480;-73
2022/01/01 03:50:55;;;;;;;25.42;10.05;;;;;;;11.87;100.00;102258.41;4922404;28;20043;-73
2022/01/01 03:53:21;;;;;;;32.10;10.82;;;;;;;11.82;100.00;102255.13;4945128;28;20038;-73
2022/01/01 03:55:47;;;;;;;29.98;11.50;;;;;;;11.81;100.00;102256.94;4936705;28;20046;-72
2022/01/01 03:58:12;;;;;;;24.75;11.18;;;;;;;11.77;100.00;102246.47;4941075;28;20649;-72
2022/01/01 04:00:39;;;;;;;27.30;10.35;;;;;;;11.77;100.00;102244.63;4905435;28;20479;-72
2022/01/01 04:03:12;;;;;;;34.20;11.05;;;;;;;11.75;100.00;102243.88;4942405;29;20038;-72
2022/01/01 04:05:40;;;;;;;26.33;11.10;;;;;;;11.85;100.00;102258.50;4940679;28;20109;-72
2022/01/01 04:08:06;;;;;;;27.98;11.02;;;;;;;11.97;100.00;102256.00;4922613;28;20030;-72
2022/01/01 04:10:31;;;;;;;30.00;12.07;;;;;;;12.02;100.00;102250.41;4917071;29;20039;-72
2022/01/01 04:13:00;;;;;;;36.42;15.88;;;;;;;12.08;100.00;102244.59;4923191;28;21100;-72
2022/01/01 04:15:26;;;;;;;34.75;16.00;;;;;;;12.25;100.00;102247.13;4924348;29;20039;-70
2022/01/01 04:17:57;;;;;;;27.30;11.00;;;;;;;12.00;100.00;102254.03;4921319;29;20027;-71
2022/01/01 04:20:22;;;;;;;27.35;11.82;;;;;;;11.91;100.00;102256.41;4925760;29;20380;-71
2022/01/01 04:22:47;;;;;;;30.70;12.07;;;;;;;11.90;100.00;102247.44;4922849;29;20037;-72
2022/01/01 04:25:13;;;;;;;27.58;11.82;;;;;;;11.91;100.00;102251.88;4919344;29;20086;-73
2022/01/01 04:27:38;;;;;;;29.13;10.40;;;;;;;11.91;100.00;102261.78;4919750;28;20128;-71
2022/01/01 04:30:04;;;;;;;23.55;10.88;;;;;;;11.89;100.00;102255.63;4941100;28;20110;-71
2022/01/01 04:32:29;;;;;;;26.65;11.93;;;;;;;11.89;100.00;102253.78;4935230;28;20035;-71
2022/01/01 04:34:54;;;;;;;28.85;11.45;;;;;;;12.02;100.00;102256.63;4938764;28;20118;-71
2022/01/01 04:37:21;;;;;;;26.83;11.20;;;;;;;12.06;100.00;102254.59;4939332;28;20058;-71
2022/01/01 04:39:47;;;;;;;26.63;11.38;;;;;;;12.10;100.00;102259.72;4937464;28;20086;-72
2022/01/01 04:42:12;;;;;;;27.27;11.40;;;;;;;11.96;100.00;102257.84;4938990;28;20122;-72
2022/01/01 04:44:38;;;;;;;26.45;11.07;;;;;;;11.89;100.00;102261.88;4922050;28;20121;-71
2022/01/01 04:47:03;;;;;;;22.13;9.13;;;;;;;11.81;100.00;102256.94;4938603;28;20031;-73
2022/01/01 04:49:28;;;;;;;27.98;10.25;;;;;;;12.04;100.00;102249.31;4908556;29;20042;-72
2022/01/01 04:51:54;;;;;;;28.17;10.57;;;;;;;11.97;100.00;102264.97;4937583;28;20555;-72
2022/01/01 04:54:19;;;;;;;28.50;10.38;;;;;;;12.02;100.00;102261.16;4923447;28;20237;-71
2022/01/01 04:56:47;;;;;;;25.40;9.82;;;;;;;12.02;100.00;102259.31;4937635;28;20081;-73
2022/01/01 04:59:13;;;;;;;28.27;10.48;;;;;;;12.08;100.00;102244.59;4939620;28;20383;-71
2022/01/01 05:01:39;;;;;;;22.83;9.02;;;;;;;12.02;100.00;102262.00;4932986;28;20094;-73
2022/01/01 05:04:06;;;;;;;25.38;9.05;;;;;;;12.05;100.00;102263.66;4920132;28;20139;-74
2022/01/01 05:06:31;;;;;;;22.90;9.10;;;;;;;11.95;100.00;102253.44;4920917;29;20031;-73
2022/01/01 05:08:57;;;;;;;24.40;8.20;;;;;;;12.05;100.00;102248.38;4920475;28;20075;-73
2022/01/01 05:11:22;;;;;;;25.55;8.20;;;;;;;11.92;100.00;102259.00;4936727;28;20035;-73
2022/01/01 05:13:47;;;;;;;28.15;10.00;;;;;;;12.21;100.00;102250.97;4939725;28;20964;-72
2022/01/01 05:16:17;;;;;;;20.38;8.48;;;;;;;11.98;100.00;102255.94;4918276;28;20155;-72
2022/01/01 05:18:42;;;;;;;30.90;9.45;;;;;;;11.95;100.00;102272.25;4937590;28;20119;-73
2022/01/01 05:21:07;;;;;;;24.38;9.25;;;;;;;11.96;100.00;102267.72;4939096;28;20031;-72
2022/01/01 05:23:33;;;;;;;24.95;9.05;;;;;;;12.02;100.00;102282.69;4909799;28;20044;-72
2022/01/01 05:25:58;;;;;;;20.98;8.05;;;;;;;11.87;100.00;102258.41;4906617;29;20031;-72
2022/01/01 05:28:23;;;;;;;22.38;8.50;;;;;;;11.94;100.00;102264.25;4937239;28;20427;-71
2022/01/01 05:30:49;;;;;;;24.15;7.82;;;;;;;11.94;100.00;102264.25;4922346;29;20031;-71
2022/01/01 05:33:15;;;;;;;20.20;7.13;;;;;;;11.94;100.00;102266.94;4939521;28;20150;-73
2022/01/01 05:35:40;;;;;;;22.67;9.07;;;;;;;12.03;100.00;102255.66;4938985;28;20027;-73
2022/01/01 05:38:06;;;;;;;19.25;6.95;;;;;;;11.82;100.00;102261.38;4920786;28;20027;-72
2022/01/01 05:40:31;;;;;;;18.20;7.32;;;;;;;11.88;100.00;102257.44;4917945;29;20032;-72
2022/01/01 05:42:56;;;;;;;19.67;8.18;;;;;;;11.92;100.00;102260.81;4905248;28;20114;-72
2022/01/01 05:45:22;;;;;;;17.20;8.05;;;;;;;11.91;100.00;102261.78;4939468;28;20121;-72
2022/01/01 05:47:47;;;;;;;18.45;7.18;;;;;;;12.06;100.00;102266.25;4919587;28;20114;-72
2022/01/01 05:50:12;;;;;;;20.52;7.30;;;;;;;12.00;100.00;102267.50;4940273;28;20038;-71
2022/01/01 05:52:38;;;;;;;15.45;7.40;;;;;;;12.04;100.00;102257.41;4922043;28;20487;-73
2022/01/01 05:55:05;;;;;;;19.33;8.15;;;;;;;12.00;100.00;102258.53;4937694;28;20505;-70
2022/01/01 05:57:30;;;;;;;16.52;5.68;;;;;;;12.06;100.00;102252.78;4937414;28;20077;-73
2022/01/01 05:59:55;;;;;;;13.77;5.85;;;;;;;12.06;100.00;102266.25;4935906;29;20417;-71
2022/01/01 06:02:21;;;;;;;14.07;6.45;;;;;;;12.06;100.00;102254.59;4935515;28;20475;-71
2022/01/01 06:04:46;;;;;;;22.40;7.63;;;;;;;12.23;100.00;102245.47;4943087;28;20037;-73
2022/01/01 06:07:11;;;;;;;16.75;7.03;;;;;;;12.12;100.00;102248.84;4920187;29;20281;-72
2022/01/01 06:09:37;;;;;;;19.02;7.15;;;;;;;12.12;100.00;102248.84;4940635;29;20031;-72
2022/01/01 06:12:02;;;;;;;19.02;6.97;;;;;;;12.06;100.00;102236.63;4937684;28;20031;-72
2022/01/01 06:14:28;;;;;;;16.85;6.43;;;;;;;12.26;100.00;102247.97;4924583;29;20145;-72
2022/01/01 06:16:53;;;;;;;18.20;7.10;;;;;;;12.12;100.00;102246.16;4938355;28;20034;-71
2022/01/01 06:19:18;;;;;;;13.38;6.07;;;;;;;11.99;100.00;102238.84;4936966;28;20031;-72
2022/01/01 06:21:43;;;;;;;17.90;6.13;;;;;;;12.00;100.00;102245.97;4934307;28;20067;-71
2022/01/01 06:24:09;;;;;;;15.32;6.03;;;;;;;11.88;100.00;102245.81;4923331;28;20039;-72
2022/01/01 06:26:34;;;;;;;17.00;6.25;;;;;;;11.87;100.00;102249.47;4938958;28;20086;-72
2022/01/01 06:29:01;;;;;;;14.55;6.78;;;;;;;11.89;100.00;102256.47;4934227;28;20432;-71
2022/01/01 06:31:26;;;;;;;16.25;6.40;;;;;;;11.95;100.00;102264.19;4936150;28;20043;-72
2022/01/01 06:33:51;;;;;;;19.98;7.53;;;;;;;12.13;99.50;102270.31;4935301;28;20031;-71
2022/01/01 06:36:17;;;;;;;11.50;6.00;;;;;;;11.83;100.00;102268.50;4937303;28;20027;-72
2022/01/01 06:38:44;;;;;;;22.10;7.75;;;;;;;11.94;100.00;102266.94;4932607;28;20024;-71
2022/01/01 06:41:10;;;;;;;17.70;6.45;;;;;;;11.92;100.00;102276.97;4933308;28;20146;-71
2022/01/01 06:43:36;;;;;;;20.38;7.80;;;;;;;11.89;100.00;102261.88;4906134;29;20032;-72
2022/01/01 06:46:01;;;;;;;15.30;6.75;;;;;;;11.87;100.00;102265.63;4918481;29;20041;-72
2022/01/01 06:48:26;;;;;;;16.38;6.75;;;;;;;11.76;100.00;102277.03;4905450;29;20391;-71
2022/01/01 06:50:52;;;;;;;16.13;6.35;;;;;;;11.71;100.00;102277.28;4902074;29;20499;-72
2022/01/01 06:53:18;;;;;;;14.82;6.60;;;;;;;11.34;100.00;102266.88;4937843;28;20110;-73
2022/01/01 06:55:43;;;;;;;18.92;7.03;;;;;;;11.58;100.00;102279.00;4906932;29;20490;-72
2022/01/01 06:58:08;;;;;;;11.70;5.63;;;;;;;11.36;100.00;102281.09;4940927;28;20101;-73
2022/01/01 07:00:34;;;;;;;17.85;6.70;;;;;;;11.21;100.00;102273.94;4942473;28;20115;-71
2022/01/01 07:02:59;;;;;;;18.00;7.18;;;;;;;11.31;100.00;102271.59;4940893;28;20039;-72
2022/01/01 07:05:25;;;;;;;14.95;6.22;;;;;;;11.36;100.00;102275.72;4942104;28;20134;-73
2022/01/01 07:07:50;;;;;;;22.15;6.95;;;;;;;11.61;100.00;102279.66;4908856;28;20032;-72
2022/01/01 07:10:15;;;;;;;15.68;6.45;;;;;;;11.65;100.00;102275.00;4922478;29;20398;-73
2022/01/01 07:12:41;;;;;;;23.65;7.78;;;;;;;11.60;99.99;102271.69;4910878;28;20039;-70
2022/01/01 07:15:07;;;;;;;14.55;5.43;;;;;;;11.40;100.00;102279.97;4911446;29;20028;-72
2022/01/01 07:17:33;;;;;;;15.48;5.53;;;;;;;11.16;100.00;102287.63;4939048;28;20032;-72
2022/01/01 07:19:58;;;;;;;19.00;5.65;;;;;;;11.31;100.00;102274.28;4940830;29;20061;-72
2022/01/01 07:22:24;;;;;;;18.13;6.25;;;;;;;11.50;100.00;102298.28;4940840;28;20045;-71
2022/01/01 07:24:52;;;;;;;18.98;6.35;;;;;;;11.28;100.00;102293.28;4923698;28;20034;-71
2022/01/01 07:27:20;;;;;;;17.85;6.70;;;;;;;11.29;100.00;102301.22;4923237;29;20043;-71
2022/01/01 07:29:45;;;;;;;17.63;5.28;;;;;;;11.49;100.00;102292.00;4942638;28;20042;-72
2022/01/01 07:32:11;;;;;;;16.20;5.88;;;;;;;11.43;100.00;102304.97;4922275;29;20031;-71
2022/01/01 07:34:36;;;;;;;21.50;6.78;;;;;;;11.71;99.72;102296.13;4941533;28;20031;-73
2022/01/01 07:37:01;;;;;;;23.15;7.53;;;;;;;11.81;98.60;102288.34;4941073;28;20489;-70
2022/01/01 07:39:27;;;;;;;20.98;6.57;;;;;;;11.62;100.00;102304.75;4940624;28;20070;-72
2022/01/01 07:41:52;;;;;;;16.63;6.65;;;;;;;11.50;100.00;102303.66;4922135;29;20025;-72
2022/01/01 07:44:17;;;;;;;21.42;6.63;;;;;;;11.40;100.00;102311.38;4942764;28;20027;-71
2022/01/01 07:46:43;;;;;;;12.70;5.40;;;;;;;11.46;100.00;102297.56;4936658;28;20040;-72
2022/01/01 07:49:08;;;;;;;23.00;7.07;;;;;;;11.44;100.00;102298.63;4939433;28;20112;-71
2022/01/01 07:51:33;;;;;;;14.63;5.50;;;;;;;11.69;99.70;102301.59;4935997;28;20050;-72
2022/01/01 07:53:59;;;;;;;16.95;5.65;;;;;;;11.51;100.00;102311.63;4921823;29;20456;-70
2022/01/01 07:56:24;;;;;;;18.60;7.15;;;;;;;11.61;100.00;102300.34;4937812;28;20028;-71
2022/01/01 07:58:49;;;;;;;17.20;5.30;;;;;;;11.50;100.00;102312.56;4939878;28;20089;-72
2022/01/01 08:01:15;;;;;;;16.85;6.00;;;;;;;11.60;100.00;102310.22;4940630;28;20422;-69
2022/01/01 08:03:40;;;;;;;14.75;6.28;;;;;;;11.76;99.69;102326.31;4935797;28;20520;-71
2022/01/01 08:06:05;;;;;;;16.67;6.70;;;;;;;11.91;98.69;102329.06;4935404;28;20030;-70
2022/01/01 08:08:31;;;;;;;19.63;6.03;;;;;;;11.85;98.58;102333.84;4921452;28;20081;-71
2022/01/01 08:10:56;;;;;;;15.52;5.75;;;;;;;11.77;99.11;102333.44;4938363;28;20027;-70
2022/01/01 08:13:24;;;;;;;21.55;6.97;;;;;;;12.01;98.57;102341.03;4940806;28;20086;-71
2022/01/01 08:15:50;;;;;;;17.08;6.30;;;;;;;11.97;97.80;102320.59;4918133;29;20456;-70
2022/01/01 08:18:16;;;;;;;21.38;6.55;;;;;;;12.10;97.69;102313.56;4937280;28;20131;-70
2022/01/01 08:20:42;;;;;;;15.85;5.90;;;;;;;12.05;97.33;102323.75;4939852;28;20031;-70
2022/01/01 08:23:07;;;;;;;16.65;5.88;;;;;;;11.91;97.85;102321.00;4940268;28;20035;-69
2022/01/01 08:25:33;;;;;;;18.65;6.80;;;;;;;11.91;98.73;102321.84;4940521;28;24637;-71
2022/01/01 08:27:58;;;;;;;17.83;5.30;;;;;;;12.24;95.66;102312.72;4940281;28;20122;-71
2022/01/01 08:30:24;;;;;;;21.52;5.20;;;;;;;12.00;96.99;102307.00;4947406;28;20035;-71
2022/01/01 08:32:49;;;;;;;17.42;5.78;;;;;;;12.06;97.01;102313.81;4943263;28;20474;-71
2022/01/01 08:35:14;;;;;;;14.05;6.25;;;;;;;12.09;97.30;102310.94;4942745;29;21293;-71
2022/01/01 08:37:40;;;;;;;14.05;6.47;;;;;;;12.24;95.78;102312.72;4908502;28;20046;-70
2022/01/01 08:40:06;;;;;;;16.83;5.95;;;;;;;12.02;97.69;102318.53;4925175;29;20074;-72
2022/01/01 08:42:32;;;;;;;15.65;5.10;;;;;;;12.00;98.11;102325.84;4940329;28;20143;-72
2022/01/01 08:44:57;;;;;;;17.65;5.70;;;;;;;11.88;98.34;102310.41;4942878;28;20054;-71
2022/01/01 08:47:25;;;;;;;13.25;5.22;;;;;;;11.82;98.74;102322.38;4924458;29;20031;-70
2022/01/01 08:49:52;;;;;;;18.45;5.75;;;;;;;11.74;98.86;102312.09;4944773;28;20038;-70
2022/01/01 08:52:17;;;;;;;16.15;5.32;;;;;;;12.04;96.40;102305.84;4942171;28;20031;-71
2022/01/01 08:54:43;;;;;;;14.13;6.25;;;;;;;12.20;95.87;102305.78;4942112;28;20039;-69
2022/01/01 08:57:09;;;;;;;17.27;6.63;;;;;;;12.10;96.86;102323.44;4922979;29;20083;-70
2022/01/01 08:59:35;;;;;;;17.35;5.70;;;;;;;12.12;96.34;102321.53;4923672;29;20040;-72
2022/01/01 09:02:00;;;;;;;16.30;6.85;;;;;;;12.15;97.46;102327.63;4923299;29;20027;-71
2022/01/01 09:04:25;;;;;;;10.75;5.35;;;;;;;11.89;97.58;102320.22;4941786;28;20065;-71
2022/01/01 09:06:51;;;;;;;14.73;5.90;;;;;;;11.90;98.10;102311.19;4941470;28;20035;-71
2022/01/01 09:09:16;;;;;;;19.77;7.70;;;;;;;12.38;95.48;102316.38;4942479;28;20119;-71
2022/01/01 09:11:42;;;;;;;14.02;6.30;;;;;;;12.04;98.14;102322.00;4922960;29;20095;-71
2022/01/01 09:14:07;;;;;;;19.65;7.28;;;;;;;12.10;96.33;102315.38;4940585;28;20034;-70
2022/01/01 09:16:32;;;;;;;13.43;5.32;;;;;;;11.85;97.97;102308.75;4925186;28;20635;-71
2022/01/01 09:18:58;;;;;;;14.07;5.72;;;;;;;11.97;97.46;102304.44;4923085;28;20419;-71
2022/01/01 09:21:24;;;;;;;20.77;7.78;;;;;;;12.24;96.44;102315.41;4942392;28;20031;-70
2022/01/01 09:23:49;;;;;;;18.52;5.85;;;;;;;11.92;97.06;102317.34;4923288;28;20046;-69
2022/01/01 09:26:14;;;;;;;17.90;6.40;;;;;;;11.89;98.12;102309.47;4943709;28;20050;-71
2022/01/01 09:28:40;;;;;;;10.13;5.38;;;;;;;11.73;99.54;102315.72;4941853;28;20027;-71
2022/01/01 09:31:05;;;;;;;15.80;6.05;;;;;;;11.98;98.02;102325.91;4925663;28;20054;-71
2022/01/01 09:33:31;;;;;;;20.02;6.63;;;;;;;12.14;96.39;102312.44;4923157;29;20058;-70
2022/01/01 09:36:02;;;;;;;12.18;6.03;;;;;;;12.02;97.28;102305.09;4913659;29;20031;-71
2022/01/01 09:38:28;;;;;;;11.48;5.10;;;;;;;11.90;98.39;102316.56;4925757;28;20487;-71
2022/01/01 09:40:55;;;;;;;11.88;5.38;;;;;;;12.08;97.19;102320.88;4942466;29;20384;-70
2022/01/01 09:43:22;;;;;;;13.90;6.00;;;;;;;12.25;96.42;102313.56;4921511;29;20764;-70
2022/01/01 09:45:48;;;;;;;11.90;6.68;;;;;;;12.21;97.11;102312.91;4923415;28;20483;-71
2022/01/01 09:48:14;;;;;;;13.18;5.85;;;;;;;12.14;98.17;102309.72;4936355;28;20496;-72
2022/01/01 09:50:41;;;;;;;12.30;5.97;;;;;;;12.03;97.92;102297.88;4927357;29;20054;-71
2022/01/01 09:53:08;;;;;;;14.60;6.22;;;;;;;12.25;97.14;102306.38;4920320;29;20056;-71
2022/01/01 09:55:34;;;;;;;16.42;7.40;;;;;;;12.39;96.41;102313.59;4921552;28;20042;-71
2022/01/01 09:58:00;;;;;;;16.92;8.02;;;;;;;12.42;97.06;102304.44;4937300;28;20574;-71
2022/01/01 10:00:25;;;;;;;18.02;8.48;;;;;;;12.41;95.71;102298.22;4939642;28;20031;-69
2022/01/01 10:02:50;;;;;;;11.63;6.05;;;;;;;12.34;96.42;102301.38;4922980;29;20033;-71
2022/01/01 10:05:16;;;;;;;20.00;7.95;;;;;;;12.65;94.69;102302.13;4924426;28;20035;-70
2022/01/01 10:07:41;;;;;;;18.58;8.82;;;;;;;13.01;92.97;102293.50;4922508;29;20126;-72
2022/01/01 10:10:19;;;;;;;17.60;8.30;;;;;;;12.70;94.04;102282.03;4904842;28;20161;-72
2022/01/01 10:12:45;;;;;;;12.52;7.55;;;;;;;12.84;93.20;102291.06;4894144;28;20151;-71
2022/01/01 10:15:11;;;;;;;16.20;8.00;;;;;;;12.45;96.20;102298.88;4919555;29;20042;-69
2022/01/01 10:17:37;;;;;;;16.52;8.52;;;;;;;12.89;93.10;102278.16;4936962;28;20043;-70
2022/01/01 10:20:04;;;;;;;16.17;6.78;;;;;;;12.56;95.65;102287.44;4935759;28;20043;-68
2022/01/01 10:22:29;;;;;;;19.52;8.23;;;;;;;12.52;96.13;102289.47;4935904;28;20057;-70
2022/01/01 10:28:01;;;;;;;12.48;7.85;;;;;;;13.32;92.48;102267.22;4938448;28;20042;-73
2022/01/01 10:30:36;;;;;;;11.95;5.60;;;;;;;13.13;92.73;102254.09;4938187;28;20074;-68
2022/01/01 10:33:08;;;;;;;15.23;7.57;;;;;;;13.62;90.88;102252.66;4942120;28;20039;-69
2022/01/01 10:35:53;;;;;;;11.02;6.30;;;;;;;13.49;92.04;102258.03;4941132;28;20372;-67
2022/01/01 10:38:22;;;;;;;16.35;7.40;;;;;;;13.96;88.71;102257.56;4921355;29;20088;-72
2022/01/01 10:40:48;;;;;;;13.07;7.75;;;;;;;14.15;87.38;102240.94;4938511;28;20031;-72
2022/01/01 10:43:17;;;;;;;14.80;7.22;;;;;;;13.84;89.82;102240.38;4942665;28;20042;-72
2022/01/01 10:45:48;;;;;;;15.90;7.22;;;;;;;13.76;89.57;102250.88;4939760;28;20037;-73
2022/01/01 10:48:24;;;;;;;13.30;6.85;;;;;;;13.88;88.45;102235.66;4925932;29;20031;-75
2022/01/01 10:50:51;;;;;;;15.38;7.05;;;;;;;13.90;88.63;102242.66;4936481;28;20023;-71
2022/01/01 10:53:27;;;;;;;11.43;6.68;;;;;;;14.10;88.17;102230.47;4951257;28;20132;-71
2022/01/01 10:55:58;;;;;;;13.50;5.90;;;;;;;13.88;87.78;102225.69;4938844;28;20023;-73
2022/01/01 10:58:28;;;;;;;12.18;6.30;;;;;;;13.87;88.63;102261.75;4946428;28;20081;-71
2022/01/01 11:01:05;;;;;;;14.20;7.53;;;;;;;14.45;86.09;102237.00;4938147;28;20054;-71
2022/01/01 11:03:41;;;;;;;14.85;4.95;;;;;;;13.76;88.61;102240.06;4947466;28;20038;-76
2022/01/01 11:06:12;;;;;;;8.55;4.80;;;;;;;14.03;88.17;102239.97;4934112;28;20062;-70
2022/01/01 11:08:39;;;;;;;10.05;5.32;;;;;;;14.33;86.53;102225.25;4939200;28;20122;-75
2022/01/01 11:11:05;;;;;;;12.65;6.18;;;;;;;14.48;85.13;102225.09;4940165;28;20024;-72